sensor_id;sensor_type;location;lat;lon;timestamp;P1;durP1;ratioP1;P2;durP2;ratioP2
20124;SDS011;10223;50.862;4.360;2022-12-29T00:01:54;1.80;;;1.10;;
20124;SDS011;10223;50.862;4.360;2022-12-29T00:04:21;2.40;;;1.30;;
20124;SDS011;10223;50.862;4.360;2022-12-29T00:06:48;1.37;;;0.97;;
20124;SDS011;10223;50.862;4.360;2022-12-29T00:09:15;1.77;;;0.80;;
20124;SDS011;10223;50.862;4.360;2022-12-29T00:11:43;1.30;;;0.80;;
20124;SDS011;10223;50.862;4.360;2022-12-29T00:14:10;2.20;;;0.93;;
20124;SDS011;10223;50.862;4.360;2022-12-29T00:16:56;2.50;;;0.70;;
20124;SDS011;10223;50.862;4.360;2022-12-29T00:19:24;2.47;;;0.70;;
20124;SDS011;10223;50.862;4.360;2022-12-29T00:22:09;2.13;;;0.90;;
20124;SDS011;10223;50.862;4.360;2022-12-29T00:24:54;1.73;;;0.70;;
20124;SDS011;10223;50.862;4.360;2022-12-29T00:27:39;1.57;;;0.80;;
20124;SDS011;10223;50.862;4.360;2022-12-29T00:30:23;1.83;;;0.70;;
20124;SDS011;10223;50.862;4.360;2022-12-29T00:33:10;3.27;;;0.70;;
20124;SDS011;10223;50.862;4.360;2022-12-29T00:35:55;1.63;;;0.70;;
20124;SDS011;10223;50.862;4.360;2022-12-29T00:38:26;1.03;;;0.57;;
20124;SDS011;10223;50.862;4.360;2022-12-29T00:41:10;2.50;;;0.83;;
20124;SDS011;10223;50.862;4.360;2022-12-29T00:44:03;3.33;;;0.90;;
20124;SDS011;10223;50.862;4.360;2022-12-29T00:46:35;3.17;;;0.77;;
20124;SDS011;10223;50.862;4.360;2022-12-29T00:49:05;1.87;;;0.70;;
20124;SDS011;10223;50.862;4.360;2022-12-29T00:51:52;4.97;;;1.23;;
20124;SDS011;10223;50.862;4.360;2022-12-29T00:54:19;4.30;;;0.83;;
20124;SDS011;10223;50.862;4.360;2022-12-29T00:56:46;2.37;;;0.57;;
20124;SDS011;10223;50.862;4.360;2022-12-29T00:59:13;1.67;;;0.57;;
20124;SDS011;10223;50.862;4.360;2022-12-29T01:01:41;2.70;;;0.70;;
20124;SDS011;10223;50.862;4.360;2022-12-29T01:04:10;1.40;;;0.50;;
20124;SDS011;10223;50.862;4.360;2022-12-29T01:06:38;2.90;;;0.70;;
20124;SDS011;10223;50.862;4.360;2022-12-29T01:09:06;5.30;;;1.00;;
20124;SDS011;10223;50.862;4.360;2022-12-29T01:11:51;2.47;;;0.53;;
20124;SDS011;10223;50.862;4.360;2022-12-29T01:14:18;4.77;;;0.70;;
20124;SDS011;10223;50.862;4.360;2022-12-29T01:16:46;2.50;;;0.80;;
20124;SDS011;10223;50.862;4.360;2022-12-29T01:19:15;3.47;;;0.70;;
20124;SDS011;10223;50.862;4.360;2022-12-29T01:21:43;1.10;;;0.50;;
20124;SDS011;10223;50.862;4.360;2022-12-29T01:24:10;3.40;;;0.83;;
20124;SDS011;10223;50.862;4.360;2022-12-29T01:26:37;4.50;;;0.93;;
20124;SDS011;10223;50.862;4.360;2022-12-29T01:29:04;3.77;;;0.80;;
20124;SDS011;10223;50.862;4.360;2022-12-29T01:31:31;2.63;;;0.63;;
20124;SDS011;10223;50.862;4.360;2022-12-29T01:33:58;3.57;;;1.20;;
20124;SDS011;10223;50.862;4.360;2022-12-29T01:36:26;1.40;;;0.80;;
20124;SDS011;10223;50.862;4.360;2022-12-29T01:38:53;4.57;;;1.20;;
20124;SDS011;10223;50.862;4.360;2022-12-29T01:41:20;2.67;;;0.77;;
20124;SDS011;10223;50.862;4.360;2022-12-29T01:43:48;3.50;;;0.90;;
20124;SDS011;10223;50.862;4.360;2022-12-29T01:46:20;2.37;;;1.10;;
20124;SDS011;10223;50.862;4.360;2022-12-29T01:48:52;2.73;;;1.10;;
20124;SDS011;10223;50.862;4.360;2022-12-29T01:51:24;3.33;;;1.83;;
20124;SDS011;10223;50.862;4.360;2022-12-29T01:53:54;3.10;;;1.00;;
20124;SDS011;10223;50.862;4.360;2022-12-29T01:56:25;1.13;;;0.77;;
20124;SDS011;10223;50.862;4.360;2022-12-29T01:58:54;2.67;;;0.73;;
20124;SDS011;10223;50.862;4.360;2022-12-29T02:01:23;1.70;;;0.70;;
20124;SDS011;10223;50.862;4.360;2022-12-29T02:03:50;2.03;;;0.73;;
20124;SDS011;10223;50.862;4.360;2022-12-29T02:06:18;2.03;;;0.90;;
20124;SDS011;10223;50.862;4.360;2022-12-29T02:08:50;4.67;;;0.87;;
20124;SDS011;10223;50.862;4.360;2022-12-29T02:11:19;1.40;;;0.57;;
20124;SDS011;10223;50.862;4.360;2022-12-29T02:13:49;3.57;;;0.60;;
20124;SDS011;10223;50.862;4.360;2022-12-29T02:16:22;1.50;;;0.60;;
20124;SDS011;10223;50.862;4.360;2022-12-29T02:19:06;1.43;;;0.50;;
20124;SDS011;10223;50.862;4.360;2022-12-29T02:21:53;4.17;;;0.63;;
20124;SDS011;10223;50.862;4.360;2022-12-29T02:27:43;1.50;;;0.50;;
20124;SDS011;10223;50.862;4.360;2022-12-29T02:33:13;2.40;;;0.57;;
20124;SDS011;10223;50.862;4.360;2022-12-29T02:35:48;0.70;;;0.20;;
20124;SDS011;10223;50.862;4.360;2022-12-29T02:38:25;4.17;;;0.73;;
20124;SDS011;10223;50.862;4.360;2022-12-29T02:40:58;1.13;;;0.30;;
20124;SDS011;10223;50.862;4.360;2022-12-29T02:43:33;2.13;;;0.40;;
20124;SDS011;10223;50.862;4.360;2022-12-29T02:46:07;2.90;;;0.40;;
20124;SDS011;10223;50.862;4.360;2022-12-29T02:48:41;1.93;;;0.60;;
20124;SDS011;10223;50.862;4.360;2022-12-29T02:51:12;1.67;;;0.50;;
20124;SDS011;10223;50.862;4.360;2022-12-29T02:53:44;0.67;;;0.40;;
20124;SDS011;10223;50.862;4.360;2022-12-29T02:56:30;1.90;;;0.50;;
20124;SDS011;10223;50.862;4.360;2022-12-29T02:58:57;1.33;;;0.50;;
20124;SDS011;10223;50.862;4.360;2022-12-29T03:01:28;1.50;;;0.40;;
20124;SDS011;10223;50.862;4.360;2022-12-29T03:04:06;3.10;;;0.73;;
20124;SDS011;10223;50.862;4.360;2022-12-29T03:06:48;2.90;;;0.40;;
20124;SDS011;10223;50.862;4.360;2022-12-29T03:09:26;3.20;;;1.00;;
20124;SDS011;10223;50.862;4.360;2022-12-29T03:12:05;4.37;;;0.70;;
20124;SDS011;10223;50.862;4.360;2022-12-29T03:14:46;4.00;;;0.73;;
20124;SDS011;10223;50.862;4.360;2022-12-29T03:17:39;9.10;;;0.73;;
20124;SDS011;10223;50.862;4.360;2022-12-29T03:20:14;5.57;;;0.97;;
20124;SDS011;10223;50.862;4.360;2022-12-29T03:22:47;3.80;;;0.63;;
20124;SDS011;10223;50.862;4.360;2022-12-29T03:25:16;1.83;;;0.70;;
20124;SDS011;10223;50.862;4.360;2022-12-29T03:27:48;8.40;;;1.20;;
20124;SDS011;10223;50.862;4.360;2022-12-29T03:30:17;8.30;;;1.13;;
20124;SDS011;10223;50.862;4.360;2022-12-29T03:32:47;3.93;;;1.10;;
20124;SDS011;10223;50.862;4.360;2022-12-29T03:35:19;2.40;;;0.60;;
20124;SDS011;10223;50.862;4.360;2022-12-29T03:37:52;4.50;;;0.90;;
20124;SDS011;10223;50.862;4.360;2022-12-29T03:40:24;4.33;;;0.57;;
20124;SDS011;10223;50.862;4.360;2022-12-29T03:42:52;0.80;;;0.60;;
20124;SDS011;10223;50.862;4.360;2022-12-29T03:45:21;2.03;;;0.73;;
20124;SDS011;10223;50.862;4.360;2022-12-29T03:47:50;3.53;;;0.77;;
20124;SDS011;10223;50.862;4.360;2022-12-29T03:50:17;6.90;;;1.20;;
20124;SDS011;10223;50.862;4.360;2022-12-29T03:52:44;3.27;;;0.70;;
20124;SDS011;10223;50.862;4.360;2022-12-29T03:55:11;5.20;;;0.97;;
20124;SDS011;10223;50.862;4.360;2022-12-29T03:57:38;4.40;;;1.00;;
20124;SDS011;10223;50.862;4.360;2022-12-29T04:00:06;2.70;;;0.60;;
20124;SDS011;10223;50.862;4.360;2022-12-29T04:02:34;3.67;;;0.80;;
20124;SDS011;10223;50.862;4.360;2022-12-29T04:05:02;1.93;;;0.67;;
20124;SDS011;10223;50.862;4.360;2022-12-29T04:07:30;3.63;;;0.70;;
20124;SDS011;10223;50.862;4.360;2022-12-29T04:09:56;5.20;;;1.10;;
20124;SDS011;10223;50.862;4.360;2022-12-29T04:12:23;5.93;;;0.83;;
20124;SDS011;10223;50.862;4.360;2022-12-29T04:14:50;4.53;;;1.10;;
20124;SDS011;10223;50.862;4.360;2022-12-29T04:17:17;6.37;;;0.70;;
20124;SDS011;10223;50.862;4.360;2022-12-29T04:19:44;3.90;;;0.80;;
20124;SDS011;10223;50.862;4.360;2022-12-29T04:22:13;4.83;;;0.90;;
20124;SDS011;10223;50.862;4.360;2022-12-29T04:24:40;5.23;;;1.53;;
20124;SDS011;10223;50.862;4.360;2022-12-29T04:27:07;2.87;;;0.70;;
20124;SDS011;10223;50.862;4.360;2022-12-29T04:29:34;4.00;;;0.80;;
20124;SDS011;10223;50.862;4.360;2022-12-29T04:32:01;4.10;;;0.70;;
20124;SDS011;10223;50.862;4.360;2022-12-29T04:34:28;4.73;;;1.07;;
20124;SDS011;10223;50.862;4.360;2022-12-29T04:36:54;2.40;;;0.70;;
20124;SDS011;10223;50.862;4.360;2022-12-29T04:39:23;6.20;;;1.07;;
20124;SDS011;10223;50.862;4.360;2022-12-29T04:41:50;3.37;;;1.10;;
20124;SDS011;10223;50.862;4.360;2022-12-29T04:44:16;3.60;;;1.00;;
20124;SDS011;10223;50.862;4.360;2022-12-29T04:46:43;3.50;;;0.80;;
20124;SDS011;10223;50.862;4.360;2022-12-29T04:49:10;5.60;;;0.90;;
20124;SDS011;10223;50.862;4.360;2022-12-29T04:51:37;2.50;;;1.00;;
20124;SDS011;10223;50.862;4.360;2022-12-29T04:54:04;5.93;;;1.20;;
20124;SDS011;10223;50.862;4.360;2022-12-29T04:56:32;7.33;;;1.20;;
20124;SDS011;10223;50.862;4.360;2022-12-29T04:58:59;5.23;;;1.33;;
20124;SDS011;10223;50.862;4.360;2022-12-29T05:01:26;3.27;;;0.80;;
20124;SDS011;10223;50.862;4.360;2022-12-29T05:03:53;2.00;;;0.73;;
20124;SDS011;10223;50.862;4.360;2022-12-29T05:06:20;4.30;;;1.23;;
20124;SDS011;10223;50.862;4.360;2022-12-29T05:08:47;6.47;;;1.17;;
20124;SDS011;10223;50.862;4.360;2022-12-29T05:11:14;4.03;;;1.20;;
20124;SDS011;10223;50.862;4.360;2022-12-29T05:13:44;6.07;;;0.90;;
20124;SDS011;10223;50.862;4.360;2022-12-29T05:16:11;5.77;;;0.90;;
20124;SDS011;10223;50.862;4.360;2022-12-29T05:18:38;5.23;;;0.80;;
20124;SDS011;10223;50.862;4.360;2022-12-29T05:21:05;7.30;;;1.40;;
20124;SDS011;10223;50.862;4.360;2022-12-29T05:23:32;4.93;;;0.87;;
20124;SDS011;10223;50.862;4.360;2022-12-29T05:26:02;6.97;;;1.37;;
20124;SDS011;10223;50.862;4.360;2022-12-29T05:28:29;4.73;;;1.20;;
20124;SDS011;10223;50.862;4.360;2022-12-29T05:30:57;4.07;;;0.97;;
20124;SDS011;10223;50.862;4.360;2022-12-29T05:33:24;6.07;;;0.73;;
20124;SDS011;10223;50.862;4.360;2022-12-29T05:35:51;5.50;;;1.03;;
20124;SDS011;10223;50.862;4.360;2022-12-29T05:38:17;3.80;;;1.17;;
20124;SDS011;10223;50.862;4.360;2022-12-29T05:40:45;9.07;;;1.60;;
20124;SDS011;10223;50.862;4.360;2022-12-29T05:43:12;6.90;;;1.30;;
20124;SDS011;10223;50.862;4.360;2022-12-29T05:45:39;7.40;;;1.30;;
20124;SDS011;10223;50.862;4.360;2022-12-29T05:48:07;2.97;;;1.10;;
20124;SDS011;10223;50.862;4.360;2022-12-29T05:50:34;7.37;;;1.20;;
20124;SDS011;10223;50.862;4.360;2022-12-29T05:53:01;7.23;;;1.50;;
20124;SDS011;10223;50.862;4.360;2022-12-29T05:55:28;11.30;;;1.20;;
20124;SDS011;10223;50.862;4.360;2022-12-29T05:57:55;7.20;;;1.47;;
20124;SDS011;10223;50.862;4.360;2022-12-29T06:00:22;6.63;;;1.30;;
20124;SDS011;10223;50.862;4.360;2022-12-29T06:02:49;6.37;;;1.20;;
20124;SDS011;10223;50.862;4.360;2022-12-29T06:05:18;9.40;;;1.40;;
20124;SDS011;10223;50.862;4.360;2022-12-29T06:07:44;6.83;;;1.20;;
20124;SDS011;10223;50.862;4.360;2022-12-29T06:10:11;9.07;;;1.20;;
20124;SDS011;10223;50.862;4.360;2022-12-29T06:12:38;7.43;;;1.43;;
20124;SDS011;10223;50.862;4.360;2022-12-29T06:15:06;8.97;;;1.37;;
20124;SDS011;10223;50.862;4.360;2022-12-29T06:17:33;7.20;;;1.53;;
20124;SDS011;10223;50.862;4.360;2022-12-29T06:20:00;5.43;;;1.37;;
20124;SDS011;10223;50.862;4.360;2022-12-29T06:22:28;6.70;;;1.10;;
20124;SDS011;10223;50.862;4.360;2022-12-29T06:24:55;8.63;;;2.40;;
20124;SDS011;10223;50.862;4.360;2022-12-29T06:27:22;6.40;;;0.93;;
20124;SDS011;10223;50.862;4.360;2022-12-29T06:29:49;11.00;;;1.43;;
20124;SDS011;10223;50.862;4.360;2022-12-29T06:32:16;6.93;;;1.50;;
20124;SDS011;10223;50.862;4.360;2022-12-29T06:34:43;7.30;;;1.70;;
20124;SDS011;10223;50.862;4.360;2022-12-29T06:37:10;5.33;;;0.97;;
20124;SDS011;10223;50.862;4.360;2022-12-29T06:39:39;9.67;;;1.80;;
20124;SDS011;10223;50.862;4.360;2022-12-29T06:42:08;7.77;;;1.37;;
20124;SDS011;10223;50.862;4.360;2022-12-29T06:44:35;8.63;;;1.37;;
20124;SDS011;10223;50.862;4.360;2022-12-29T06:47:02;8.70;;;1.60;;
20124;SDS011;10223;50.862;4.360;2022-12-29T06:49:29;7.43;;;1.43;;
20124;SDS011;10223;50.862;4.360;2022-12-29T06:51:56;10.63;;;1.23;;
20124;SDS011;10223;50.862;4.360;2022-12-29T06:54:25;8.00;;;1.83;;
20124;SDS011;10223;50.862;4.360;2022-12-29T06:56:54;10.33;;;1.40;;
20124;SDS011;10223;50.862;4.360;2022-12-29T06:59:21;7.63;;;1.40;;
20124;SDS011;10223;50.862;4.360;2022-12-29T07:01:48;8.37;;;1.33;;
20124;SDS011;10223;50.862;4.360;2022-12-29T07:04:15;8.97;;;1.47;;
20124;SDS011;10223;50.862;4.360;2022-12-29T07:06:42;9.50;;;1.50;;
20124;SDS011;10223;50.862;4.360;2022-12-29T07:09:09;4.77;;;1.80;;
20124;SDS011;10223;50.862;4.360;2022-12-29T07:11:37;7.67;;;0.90;;
20124;SDS011;10223;50.862;4.360;2022-12-29T07:14:05;6.40;;;1.20;;
20124;SDS011;10223;50.862;4.360;2022-12-29T07:16:32;7.87;;;1.50;;
20124;SDS011;10223;50.862;4.360;2022-12-29T07:18:59;6.53;;;1.27;;
20124;SDS011;10223;50.862;4.360;2022-12-29T07:21:26;6.73;;;1.53;;
20124;SDS011;10223;50.862;4.360;2022-12-29T07:23:53;8.23;;;1.93;;
20124;SDS011;10223;50.862;4.360;2022-12-29T07:26:20;7.67;;;1.40;;
20124;SDS011;10223;50.862;4.360;2022-12-29T07:28:47;4.67;;;1.20;;
20124;SDS011;10223;50.862;4.360;2022-12-29T07:31:16;6.27;;;1.77;;
20124;SDS011;10223;50.862;4.360;2022-12-29T07:33:44;4.63;;;1.43;;
20124;SDS011;10223;50.862;4.360;2022-12-29T07:36:15;5.20;;;1.20;;
20124;SDS011;10223;50.862;4.360;2022-12-29T07:38:42;8.70;;;1.70;;
20124;SDS011;10223;50.862;4.360;2022-12-29T07:41:09;8.27;;;1.50;;
20124;SDS011;10223;50.862;4.360;2022-12-29T07:43:36;11.07;;;1.83;;
20124;SDS011;10223;50.862;4.360;2022-12-29T07:46:03;6.70;;;1.20;;
20124;SDS011;10223;50.862;4.360;2022-12-29T07:48:31;5.40;;;1.40;;
20124;SDS011;10223;50.862;4.360;2022-12-29T07:51:01;5.67;;;1.07;;
20124;SDS011;10223;50.862;4.360;2022-12-29T07:53:28;7.17;;;1.40;;
20124;SDS011;10223;50.862;4.360;2022-12-29T07:55:55;9.67;;;1.20;;
20124;SDS011;10223;50.862;4.360;2022-12-29T07:58:22;9.40;;;1.50;;
20124;SDS011;10223;50.862;4.360;2022-12-29T08:00:52;9.43;;;1.33;;
20124;SDS011;10223;50.862;4.360;2022-12-29T08:03:19;9.37;;;1.70;;
20124;SDS011;10223;50.862;4.360;2022-12-29T08:05:48;9.07;;;1.97;;
20124;SDS011;10223;50.862;4.360;2022-12-29T08:08:18;5.97;;;1.60;;
20124;SDS011;10223;50.862;4.360;2022-12-29T08:10:46;10.97;;;1.83;;
20124;SDS011;10223;50.862;4.360;2022-12-29T08:13:13;10.77;;;1.33;;
20124;SDS011;10223;50.862;4.360;2022-12-29T08:15:40;9.77;;;1.80;;
20124;SDS011;10223;50.862;4.360;2022-12-29T08:18:09;8.83;;;1.80;;
20124;SDS011;10223;50.862;4.360;2022-12-29T08:20:36;8.77;;;1.40;;
20124;SDS011;10223;50.862;4.360;2022-12-29T08:23:04;8.73;;;1.73;;
20124;SDS011;10223;50.862;4.360;2022-12-29T08:25:31;4.90;;;1.33;;
20124;SDS011;10223;50.862;4.360;2022-12-29T08:27:58;11.13;;;1.90;;
20124;SDS011;10223;50.862;4.360;2022-12-29T08:30:25;8.50;;;1.40;;
20124;SDS011;10223;50.862;4.360;2022-12-29T08:32:51;7.70;;;1.17;;
20124;SDS011;10223;50.862;4.360;2022-12-29T08:35:18;5.37;;;1.60;;
20124;SDS011;10223;50.862;4.360;2022-12-29T08:37:45;9.50;;;1.33;;
20124;SDS011;10223;50.862;4.360;2022-12-29T08:40:14;8.73;;;1.60;;
20124;SDS011;10223;50.862;4.360;2022-12-29T08:42:43;8.37;;;1.53;;
20124;SDS011;10223;50.862;4.360;2022-12-29T08:45:10;6.53;;;1.30;;
20124;SDS011;10223;50.862;4.360;2022-12-29T08:47:37;9.10;;;1.90;;
20124;SDS011;10223;50.862;4.360;2022-12-29T08:50:04;8.13;;;1.53;;
20124;SDS011;10223;50.862;4.360;2022-12-29T08:52:31;11.90;;;1.90;;
20124;SDS011;10223;50.862;4.360;2022-12-29T08:54:58;11.20;;;2.00;;
20124;SDS011;10223;50.862;4.360;2022-12-29T08:57:27;8.40;;;1.57;;
20124;SDS011;10223;50.862;4.360;2022-12-29T08:59:53;8.07;;;1.60;;
20124;SDS011;10223;50.862;4.360;2022-12-29T09:02:20;12.57;;;2.00;;
20124;SDS011;10223;50.862;4.360;2022-12-29T09:04:47;12.63;;;2.03;;
20124;SDS011;10223;50.862;4.360;2022-12-29T09:07:14;6.50;;;1.50;;
20124;SDS011;10223;50.862;4.360;2022-12-29T09:09:41;11.63;;;2.07;;
20124;SDS011;10223;50.862;4.360;2022-12-29T09:12:08;11.70;;;2.00;;
20124;SDS011;10223;50.862;4.360;2022-12-29T09:14:36;6.90;;;1.60;;
20124;SDS011;10223;50.862;4.360;2022-12-29T09:17:03;9.47;;;1.70;;
20124;SDS011;10223;50.862;4.360;2022-12-29T09:19:48;10.47;;;1.47;;
20124;SDS011;10223;50.862;4.360;2022-12-29T09:22:14;6.23;;;1.13;;
20124;SDS011;10223;50.862;4.360;2022-12-29T09:24:41;9.10;;;2.07;;
20124;SDS011;10223;50.862;4.360;2022-12-29T09:27:08;13.30;;;1.90;;
20124;SDS011;10223;50.862;4.360;2022-12-29T09:29:36;9.03;;;1.50;;
20124;SDS011;10223;50.862;4.360;2022-12-29T09:32:03;11.87;;;1.50;;
20124;SDS011;10223;50.862;4.360;2022-12-29T09:34:30;15.63;;;3.07;;
20124;SDS011;10223;50.862;4.360;2022-12-29T09:36:57;11.17;;;2.00;;
20124;SDS011;10223;50.862;4.360;2022-12-29T09:39:24;12.00;;;2.33;;
20124;SDS011;10223;50.862;4.360;2022-12-29T09:41:52;10.73;;;1.70;;
20124;SDS011;10223;50.862;4.360;2022-12-29T09:44:29;11.57;;;2.00;;
20124;SDS011;10223;50.862;4.360;2022-12-29T09:47:07;12.80;;;2.23;;
20124;SDS011;10223;50.862;4.360;2022-12-29T09:49:38;14.57;;;1.93;;
20124;SDS011;10223;50.862;4.360;2022-12-29T09:52:12;8.80;;;1.70;;
20124;SDS011;10223;50.862;4.360;2022-12-29T09:54:43;13.07;;;2.20;;
20124;SDS011;10223;50.862;4.360;2022-12-29T09:57:18;14.07;;;2.10;;
20124;SDS011;10223;50.862;4.360;2022-12-29T09:59:50;11.57;;;2.13;;
20124;SDS011;10223;50.862;4.360;2022-12-29T10:02:23;13.60;;;2.27;;
20124;SDS011;10223;50.862;4.360;2022-12-29T10:04:57;13.10;;;1.90;;
20124;SDS011;10223;50.862;4.360;2022-12-29T10:07:26;11.77;;;1.60;;
20124;SDS011;10223;50.862;4.360;2022-12-29T10:10:01;8.67;;;1.70;;
20124;SDS011;10223;50.862;4.360;2022-12-29T10:12:38;11.60;;;2.00;;
20124;SDS011;10223;50.862;4.360;2022-12-29T10:15:29;14.70;;;1.83;;
20124;SDS011;10223;50.862;4.360;2022-12-29T10:18:11;9.67;;;1.87;;
20124;SDS011;10223;50.862;4.360;2022-12-29T10:20:49;14.47;;;2.63;;
20124;SDS011;10223;50.862;4.360;2022-12-29T10:23:25;7.77;;;1.33;;
20124;SDS011;10223;50.862;4.360;2022-12-29T10:25:55;9.67;;;1.87;;
20124;SDS011;10223;50.862;4.360;2022-12-29T10:28:23;14.50;;;2.97;;
20124;SDS011;10223;50.862;4.360;2022-12-29T10:31:03;13.73;;;2.20;;
20124;SDS011;10223;50.862;4.360;2022-12-29T10:33:37;15.83;;;2.33;;
20124;SDS011;10223;50.862;4.360;2022-12-29T10:36:12;15.17;;;2.23;;
20124;SDS011;10223;50.862;4.360;2022-12-29T10:38:44;9.17;;;1.90;;
20124;SDS011;10223;50.862;4.360;2022-12-29T10:41:18;7.67;;;1.97;;
20124;SDS011;10223;50.862;4.360;2022-12-29T10:43:49;16.40;;;2.67;;
20124;SDS011;10223;50.862;4.360;2022-12-29T10:46:19;9.03;;;1.83;;
20124;SDS011;10223;50.862;4.360;2022-12-29T10:48:51;18.53;;;2.93;;
20124;SDS011;10223;50.862;4.360;2022-12-29T10:51:20;12.03;;;2.60;;
20124;SDS011;10223;50.862;4.360;2022-12-29T10:53:49;13.10;;;2.47;;
20124;SDS011;10223;50.862;4.360;2022-12-29T10:56:21;9.70;;;2.13;;
20124;SDS011;10223;50.862;4.360;2022-12-29T10:58:58;15.23;;;2.47;;
20124;SDS011;10223;50.862;4.360;2022-12-29T11:01:31;7.20;;;1.80;;
20124;SDS011;10223;50.862;4.360;2022-12-29T11:04:04;10.63;;;2.63;;
20124;SDS011;10223;50.862;4.360;2022-12-29T11:06:42;14.47;;;2.53;;
20124;SDS011;10223;50.862;4.360;2022-12-29T11:09:10;11.83;;;2.47;;
20124;SDS011;10223;50.862;4.360;2022-12-29T11:11:41;9.47;;;2.33;;
20124;SDS011;10223;50.862;4.360;2022-12-29T11:14:11;10.17;;;1.70;;
20124;SDS011;10223;50.862;4.360;2022-12-29T11:16:39;6.80;;;1.53;;
20124;SDS011;10223;50.862;4.360;2022-12-29T11:19:20;12.13;;;1.87;;
20124;SDS011;10223;50.862;4.360;2022-12-29T11:21:48;11.57;;;2.33;;
20124;SDS011;10223;50.862;4.360;2022-12-29T11:24:19;7.20;;;1.87;;
20124;SDS011;10223;50.862;4.360;2022-12-29T11:26:49;12.70;;;1.73;;
20124;SDS011;10223;50.862;4.360;2022-12-29T11:29:26;6.93;;;2.00;;
20124;SDS011;10223;50.862;4.360;2022-12-29T11:31:55;12.77;;;2.27;;
20124;SDS011;10223;50.862;4.360;2022-12-29T11:34:26;11.47;;;1.60;;
20124;SDS011;10223;50.862;4.360;2022-12-29T11:36:58;11.70;;;2.43;;
20124;SDS011;10223;50.862;4.360;2022-12-29T11:39:33;15.23;;;3.10;;
20124;SDS011;10223;50.862;4.360;2022-12-29T11:42:03;14.10;;;3.37;;
20124;SDS011;10223;50.862;4.360;2022-12-29T11:44:35;10.67;;;2.77;;
20124;SDS011;10223;50.862;4.360;2022-12-29T11:47:08;10.47;;;2.20;;
20124;SDS011;10223;50.862;4.360;2022-12-29T11:49:43;10.07;;;2.30;;
20124;SDS011;10223;50.862;4.360;2022-12-29T11:52:16;8.83;;;2.10;;
20124;SDS011;10223;50.862;4.360;2022-12-29T11:54:49;16.07;;;1.93;;
20124;SDS011;10223;50.862;4.360;2022-12-29T11:57:16;13.90;;;2.93;;
20124;SDS011;10223;50.862;4.360;2022-12-29T11:59:48;13.03;;;1.77;;
20124;SDS011;10223;50.862;4.360;2022-12-29T12:05:10;7.23;;;1.83;;
20124;SDS011;10223;50.862;4.360;2022-12-29T12:07:50;13.53;;;2.50;;
20124;SDS011;10223;50.862;4.360;2022-12-29T12:10:23;10.93;;;1.97;;
20124;SDS011;10223;50.862;4.360;2022-12-29T12:13:01;11.60;;;2.37;;
20124;SDS011;10223;50.862;4.360;2022-12-29T12:15:35;14.03;;;2.63;;
20124;SDS011;10223;50.862;4.360;2022-12-29T12:18:08;10.73;;;2.63;;
20124;SDS011;10223;50.862;4.360;2022-12-29T12:20:47;5.23;;;1.73;;
20124;SDS011;10223;50.862;4.360;2022-12-29T12:23:22;10.83;;;2.20;;
20124;SDS011;10223;50.862;4.360;2022-12-29T12:25:59;11.00;;;2.13;;
20124;SDS011;10223;50.862;4.360;2022-12-29T12:28:37;6.87;;;2.07;;
20124;SDS011;10223;50.862;4.360;2022-12-29T12:31:15;14.83;;;2.10;;
20124;SDS011;10223;50.862;4.360;2022-12-29T12:33:48;9.83;;;2.53;;
20124;SDS011;10223;50.862;4.360;2022-12-29T12:36:37;11.90;;;2.10;;
20124;SDS011;10223;50.862;4.360;2022-12-29T12:39:20;14.07;;;3.03;;
20124;SDS011;10223;50.862;4.360;2022-12-29T12:41:54;12.63;;;1.90;;
20124;SDS011;10223;50.862;4.360;2022-12-29T12:44:36;12.07;;;1.90;;
20124;SDS011;10223;50.862;4.360;2022-12-29T12:47:27;13.63;;;2.00;;
20124;SDS011;10223;50.862;4.360;2022-12-29T12:50:26;12.30;;;2.53;;
20124;SDS011;10223;50.862;4.360;2022-12-29T12:53:16;12.43;;;1.93;;
20124;SDS011;10223;50.862;4.360;2022-12-29T12:55:58;11.63;;;2.17;;
20124;SDS011;10223;50.862;4.360;2022-12-29T12:58:36;12.33;;;3.27;;
20124;SDS011;10223;50.862;4.360;2022-12-29T13:01:16;9.43;;;2.37;;
20124;SDS011;10223;50.862;4.360;2022-12-29T13:03:56;6.70;;;1.90;;
20124;SDS011;10223;50.862;4.360;2022-12-29T13:06:35;10.47;;;2.37;;
20124;SDS011;10223;50.862;4.360;2022-12-29T13:09:20;6.73;;;1.63;;
20124;SDS011;10223;50.862;4.360;2022-12-29T13:12:00;10.23;;;2.30;;
20124;SDS011;10223;50.862;4.360;2022-12-29T13:14:40;6.30;;;1.60;;
20124;SDS011;10223;50.862;4.360;2022-12-29T13:17:18;9.77;;;1.70;;
20124;SDS011;10223;50.862;4.360;2022-12-29T13:19:56;7.60;;;1.80;;
20124;SDS011;10223;50.862;4.360;2022-12-29T13:22:30;4.43;;;1.40;;
20124;SDS011;10223;50.862;4.360;2022-12-29T13:25:13;15.27;;;2.03;;
20124;SDS011;10223;50.862;4.360;2022-12-29T13:27:50;8.70;;;1.57;;
20124;SDS011;10223;50.862;4.360;2022-12-29T13:30:22;5.60;;;1.47;;
20124;SDS011;10223;50.862;4.360;2022-12-29T13:32:55;8.93;;;1.43;;
20124;SDS011;10223;50.862;4.360;2022-12-29T13:35:33;8.97;;;1.70;;
20124;SDS011;10223;50.862;4.360;2022-12-29T13:38:12;9.83;;;1.77;;
20124;SDS011;10223;50.862;4.360;2022-12-29T13:40:47;9.97;;;2.17;;
20124;SDS011;10223;50.862;4.360;2022-12-29T13:43:18;11.37;;;3.07;;
20124;SDS011;10223;50.862;4.360;2022-12-29T13:45:48;7.07;;;2.50;;
20124;SDS011;10223;50.862;4.360;2022-12-29T13:48:22;14.50;;;2.50;;
20124;SDS011;10223;50.862;4.360;2022-12-29T13:51:03;8.60;;;1.73;;
20124;SDS011;10223;50.862;4.360;2022-12-29T13:53:33;13.20;;;2.60;;
20124;SDS011;10223;50.862;4.360;2022-12-29T13:56:11;7.40;;;2.27;;
20124;SDS011;10223;50.862;4.360;2022-12-29T13:58:46;12.57;;;2.03;;
20124;SDS011;10223;50.862;4.360;2022-12-29T14:01:20;12.17;;;2.70;;
20124;SDS011;10223;50.862;4.360;2022-12-29T14:03:53;9.40;;;1.80;;
20124;SDS011;10223;50.862;4.360;2022-12-29T14:06:22;14.63;;;2.40;;
20124;SDS011;10223;50.862;4.360;2022-12-29T14:08:52;10.43;;;2.30;;
20124;SDS011;10223;50.862;4.360;2022-12-29T14:11:23;11.10;;;2.43;;
20124;SDS011;10223;50.862;4.360;2022-12-29T14:13:55;11.47;;;2.57;;
20124;SDS011;10223;50.862;4.360;2022-12-29T14:16:27;15.30;;;3.57;;
20124;SDS011;10223;50.862;4.360;2022-12-29T14:18:56;16.60;;;3.17;;
20124;SDS011;10223;50.862;4.360;2022-12-29T14:21:31;14.90;;;3.00;;
20124;SDS011;10223;50.862;4.360;2022-12-29T14:27:02;11.57;;;2.37;;
20124;SDS011;10223;50.862;4.360;2022-12-29T14:33:20;15.70;;;2.63;;
20124;SDS011;10223;50.862;4.360;2022-12-29T14:35:49;14.23;;;2.83;;
20124;SDS011;10223;50.862;4.360;2022-12-29T14:38:27;11.47;;;2.20;;
20124;SDS011;10223;50.862;4.360;2022-12-29T14:43:52;8.40;;;1.90;;
20124;SDS011;10223;50.862;4.360;2022-12-29T14:46:21;10.27;;;1.93;;
20124;SDS011;10223;50.862;4.360;2022-12-29T14:48:52;7.20;;;1.50;;
20124;SDS011;10223;50.862;4.360;2022-12-29T14:51:28;6.03;;;1.30;;
20124;SDS011;10223;50.862;4.360;2022-12-29T14:53:58;5.30;;;1.27;;
20124;SDS011;10223;50.862;4.360;2022-12-29T14:56:25;5.57;;;1.47;;
20124;SDS011;10223;50.862;4.360;2022-12-29T14:58:58;5.30;;;1.40;;
20124;SDS011;10223;50.862;4.360;2022-12-29T15:01:33;5.07;;;1.37;;
20124;SDS011;10223;50.862;4.360;2022-12-29T15:04:05;8.63;;;1.50;;
20124;SDS011;10223;50.862;4.360;2022-12-29T15:06:41;6.37;;;1.30;;
20124;SDS011;10223;50.862;4.360;2022-12-29T15:09:12;8.17;;;1.43;;
20124;SDS011;10223;50.862;4.360;2022-12-29T15:11:50;6.87;;;1.00;;
20124;SDS011;10223;50.862;4.360;2022-12-29T15:14:31;3.97;;;0.80;;
20124;SDS011;10223;50.862;4.360;2022-12-29T15:17:00;6.40;;;1.43;;
20124;SDS011;10223;50.862;4.360;2022-12-29T15:19:34;5.53;;;1.53;;
20124;SDS011;10223;50.862;4.360;2022-12-29T15:22:01;7.10;;;1.13;;
20124;SDS011;10223;50.862;4.360;2022-12-29T15:24:29;5.77;;;1.13;;
20124;SDS011;10223;50.862;4.360;2022-12-29T15:26:56;6.47;;;1.40;;